createdAt,value
2022-11-06T00:00:41.693Z,9.661814
2022-11-06T00:01:41.762Z,9.661230
2022-11-06T00:02:41.755Z,9.661435
2022-11-06T00:03:41.683Z,9.661949
2022-11-06T00:04:41.721Z,9.661923
2022-11-06T00:05:41.736Z,9.661619
2022-11-06T00:06:41.667Z,9.661572
2022-11-06T00:07:41.642Z,9.661572
2022-11-06T00:08:41.692Z,9.661644
2022-11-06T00:09:41.643Z,9.661629
2022-11-06T00:10:41.608Z,9.661570
2022-11-06T00:11:41.621Z,9.661575
2022-11-06T00:12:41.607Z,9.661603
2022-11-06T00:13:41.618Z,9.661551
2022-11-06T00:14:41.590Z,9.661631
2022-11-06T00:15:41.636Z,9.661610
2022-11-06T00:16:41.580Z,9.661572
2022-11-06T00:17:41.580Z,9.661479
2022-11-06T00:18:41.572Z,9.661599
2022-11-06T00:19:41.572Z,9.661612
2022-11-06T00:20:41.576Z,9.661686
2022-11-06T00:21:41.551Z,9.661648
2022-11-06T00:22:41.544Z,9.661579
2022-11-06T00:23:41.527Z,9.661628
2022-11-06T00:24:41.647Z,9.661627
2022-11-06T00:25:41.518Z,9.661512
2022-11-06T00:26:41.511Z,9.661566
2022-11-06T00:27:41.529Z,9.661655
2022-11-06T00:28:41.502Z,9.661651
2022-11-06T00:29:41.494Z,9.661779
2022-11-06T00:30:41.599Z,9.661672
2022-11-06T00:31:41.501Z,9.661769
2022-11-06T00:32:41.493Z,9.661727
2022-11-06T00:33:41.475Z,9.661559
2022-11-06T00:34:41.457Z,9.662010
2022-11-06T00:35:41.475Z,9.661927
2022-11-06T00:36:41.994Z,9.662030
2022-11-06T00:37:41.441Z,9.661934
2022-11-06T00:38:41.453Z,9.661901
2022-11-06T00:39:41.447Z,9.661682
2022-11-06T00:40:41.439Z,9.661493
2022-11-06T00:41:41.522Z,9.661516
2022-11-06T00:42:41.421Z,9.661449
2022-11-06T00:43:41.434Z,9.661427
2022-11-06T00:44:41.397Z,9.661422
2022-11-06T00:45:41.396Z,9.661437
2022-11-06T00:46:41.410Z,9.661461
2022-11-06T00:47:41.380Z,9.661431
2022-11-06T00:48:41.383Z,9.661531
2022-11-06T00:49:41.375Z,9.661743
2022-11-06T00:50:41.389Z,9.661696
2022-11-06T00:51:41.386Z,9.661657
2022-11-06T00:52:41.396Z,9.661471
2022-11-06T00:53:41.344Z,9.661435
2022-11-06T00:54:41.332Z,9.661416
2022-11-06T00:55:41.351Z,9.661388
2022-11-06T00:56:41.335Z,9.661383
2022-11-06T00:57:41.349Z,9.661366
2022-11-06T00:58:41.327Z,9.661378
2022-11-06T00:59:41.496Z,9.661313
2022-11-06T01:00:41.307Z,9.661970
2022-11-06T01:01:41.467Z,9.661645
2022-11-06T01:02:41.494Z,9.661654
2022-11-06T01:03:41.324Z,9.661511
2022-11-06T01:04:41.283Z,9.661455
2022-11-06T01:05:41.292Z,9.661528
2022-11-06T01:06:41.265Z,9.661466
2022-11-06T01:07:41.266Z,9.661441
2022-11-06T01:08:41.313Z,9.661194
2022-11-06T01:09:41.269Z,9.661377
2022-11-06T01:10:42.231Z,9.661481
2022-11-06T01:12:10.908Z,9.661530
2022-11-06T01:12:43.221Z,9.661547
2022-11-06T01:13:41.224Z,9.661473
2022-11-06T01:14:41.319Z,9.661684
2022-11-06T01:15:41.220Z,9.661596
2022-11-06T01:16:41.196Z,9.661285
2022-11-06T01:17:41.202Z,9.661669
2022-11-06T01:18:41.216Z,9.661432
2022-11-06T01:19:41.213Z,9.661665
2022-11-06T01:20:41.190Z,9.661377
2022-11-06T01:21:41.199Z,9.661380
2022-11-06T01:22:41.168Z,9.661364
2022-11-06T01:23:41.179Z,9.661269
2022-11-06T01:24:41.209Z,9.661613
2022-11-06T01:25:41.162Z,9.661335
2022-11-06T01:26:58.507Z,9.661354
2022-11-06T01:27:42.145Z,9.661659
2022-11-06T01:28:41.120Z,9.661570
2022-11-06T01:29:41.148Z,9.661598
2022-11-06T01:30:41.152Z,9.661573
2022-11-06T01:31:41.120Z,9.661401
2022-11-06T01:32:41.133Z,9.660988
2022-11-06T01:33:41.130Z,9.661044
2022-11-06T01:34:41.100Z,9.661044
2022-11-06T01:35:41.087Z,9.661044
2022-11-06T01:36:41.113Z,9.661250
2022-11-06T01:37:41.083Z,9.661570
2022-11-06T01:38:41.100Z,9.661440
2022-11-06T01:39:41.068Z,9.661483
2022-11-06T01:40:41.060Z,9.661523
2022-11-06T01:41:41.168Z,9.661483
2022-11-06T01:42:41.055Z,9.661550
2022-11-06T01:43:41.142Z,9.661681
2022-11-06T01:44:41.041Z,9.661628
2022-11-06T01:45:41.034Z,9.661572
2022-11-06T01:46:41.034Z,9.661667
2022-11-06T01:47:41.160Z,9.661443
2022-11-06T01:48:41.019Z,9.661412
2022-11-06T01:49:40.996Z,9.661347
2022-11-06T01:50:41.076Z,9.661424
2022-11-06T01:51:41.009Z,9.661437
2022-11-06T01:52:41.010Z,9.661467
2022-11-06T01:53:40.972Z,9.661482
2022-11-06T01:54:40.992Z,9.661442
2022-11-06T01:55:40.967Z,9.661470
2022-11-06T01:56:40.968Z,9.661476
2022-11-06T01:57:40.945Z,9.661406
2022-11-06T01:58:41.068Z,9.661407
2022-11-06T01:59:40.956Z,9.661492
2022-11-06T02:00:40.941Z,9.661430
2022-11-06T02:01:41.033Z,9.661469
2022-11-06T02:02:41.059Z,9.661487
2022-11-06T02:03:40.951Z,9.661306
2022-11-06T02:04:40.907Z,9.661324
2022-11-06T02:05:40.912Z,9.661378
2022-11-06T02:06:40.905Z,9.661360
2022-11-06T02:07:40.869Z,9.661413
2022-11-06T02:08:40.900Z,9.661403
2022-11-06T02:09:40.905Z,9.661351
2022-11-06T02:10:40.883Z,9.661436
2022-11-06T02:11:40.872Z,9.661534
2022-11-06T02:12:40.883Z,9.661501
2022-11-06T02:13:40.858Z,9.661544
2022-11-06T02:14:40.895Z,9.661441
2022-11-06T02:15:40.841Z,9.661505
2022-11-06T02:16:40.830Z,9.661467
2022-11-06T02:17:40.816Z,9.661441
2022-11-06T02:18:40.840Z,9.661497
2022-11-06T02:19:40.822Z,9.661532
2022-11-06T02:20:40.837Z,9.661488
2022-11-06T02:21:40.818Z,9.661403
2022-11-06T02:22:40.819Z,9.661871
2022-11-06T02:23:40.786Z,9.661804
2022-11-06T02:24:40.785Z,9.661880
2022-11-06T02:25:40.800Z,9.661787
2022-11-06T02:26:40.772Z,9.661712
2022-11-06T02:27:40.775Z,9.661283
2022-11-06T02:28:40.762Z,9.661586
2022-11-06T02:29:40.748Z,9.661578
2022-11-06T02:30:40.755Z,9.661607
2022-11-06T02:31:40.764Z,9.661551
2022-11-06T02:32:41.752Z,9.661425
2022-11-06T02:33:40.745Z,9.661634
2022-11-06T02:34:40.716Z,9.661574
2022-11-06T02:35:40.708Z,9.661542
2022-11-06T02:36:40.811Z,9.661581
2022-11-06T02:37:40.719Z,9.661464
2022-11-06T02:38:40.686Z,9.661432
2022-11-06T02:39:40.689Z,9.661437
2022-11-06T02:40:40.702Z,9.661494
2022-11-06T02:41:40.680Z,9.661420
2022-11-06T02:42:40.693Z,9.661359
2022-11-06T02:43:40.667Z,9.661312
2022-11-06T02:44:41.645Z,9.661320
2022-11-06T02:45:40.641Z,9.661491
2022-11-06T02:46:40.649Z,9.661546
2022-11-06T02:47:40.755Z,9.661502
2022-11-06T02:48:40.625Z,9.661471
2022-11-06T02:49:40.604Z,9.661660
2022-11-06T02:50:40.610Z,9.661598
2022-11-06T02:51:40.624Z,9.661591
2022-11-06T02:52:40.609Z,9.661543
2022-11-06T02:53:40.704Z,9.661608
2022-11-06T02:54:40.586Z,9.661583
2022-11-06T02:55:40.593Z,9.661520
2022-11-06T02:56:40.588Z,9.661483
2022-11-06T02:57:40.566Z,9.661510
2022-11-06T02:58:43.606Z,9.661474
2022-11-06T02:59:41.573Z,9.661507
2022-11-06T03:00:40.559Z,9.661588
2022-11-06T03:01:40.653Z,9.661557
2022-11-06T03:02:40.849Z,9.661586
2022-11-06T03:03:40.528Z,9.661572
2022-11-06T03:04:40.552Z,9.661653
2022-11-06T03:05:40.512Z,9.661569
2022-11-06T03:06:40.515Z,9.661616
2022-11-06T03:07:40.510Z,9.661508
2022-11-06T03:08:40.512Z,9.661465
2022-11-06T03:09:40.559Z,9.661553
2022-11-06T03:10:40.484Z,9.661572
2022-11-06T03:11:40.475Z,9.661508
2022-11-06T03:12:41.474Z,9.661565
2022-11-06T03:13:40.462Z,9.661535
2022-11-06T03:14:40.459Z,9.661474
2022-11-06T03:15:40.484Z,9.661503
2022-11-06T03:16:40.433Z,9.661448
2022-11-06T03:17:40.439Z,9.661440
2022-11-06T03:18:40.431Z,9.661482
2022-11-06T03:19:40.423Z,9.661390
2022-11-06T03:20:40.450Z,9.661527
2022-11-06T03:21:40.429Z,9.661483
2022-11-06T03:22:40.419Z,9.661426
2022-11-06T03:23:40.402Z,9.660695
2022-11-06T03:24:40.411Z,9.660667
2022-11-06T03:25:40.397Z,9.660303
2022-11-06T03:26:40.404Z,9.660476
2022-11-06T03:27:40.378Z,9.660526
2022-11-06T03:28:40.379Z,9.661199
2022-11-06T03:29:40.349Z,9.661712
2022-11-06T03:30:40.347Z,9.661883
2022-11-06T03:31:40.384Z,9.661893
2022-11-06T03:32:40.338Z,9.661783
2022-11-06T03:33:40.341Z,9.661473
2022-11-06T03:34:40.325Z,9.661555
2022-11-06T03:35:40.318Z,9.661786
2022-11-06T03:36:40.311Z,9.661765
2022-11-06T03:37:40.336Z,9.661727
2022-11-06T03:38:42.455Z,9.661798
2022-11-06T03:39:41.296Z,9.662014
2022-11-06T03:40:40.299Z,9.661895
2022-11-06T03:41:40.297Z,9.661631
2022-11-06T03:42:40.307Z,9.661539
2022-11-06T03:43:40.270Z,9.661603
2022-11-06T03:44:40.268Z,9.661699
2022-11-06T03:45:40.249Z,9.661779
2022-11-06T03:46:40.257Z,9.661698
2022-11-06T03:47:40.242Z,9.661759
2022-11-06T03:48:40.257Z,9.661737
2022-11-06T03:49:40.222Z,9.661732
2022-11-06T03:50:40.241Z,9.661673
2022-11-06T03:51:40.221Z,9.661834
2022-11-06T03:52:42.519Z,9.661621
2022-11-06T03:53:40.246Z,9.661480
2022-11-06T03:54:40.210Z,9.661710
2022-11-06T03:55:40.213Z,9.661682
2022-11-06T03:56:40.200Z,9.661676
2022-11-06T03:57:40.187Z,9.661816
2022-11-06T03:58:40.233Z,9.661918
2022-11-06T03:59:40.188Z,9.661936
2022-11-06T04:00:40.155Z,9.661834
2022-11-06T04:01:40.303Z,9.661818
2022-11-06T04:02:40.302Z,9.661695
2022-11-06T04:03:40.146Z,9.661628
2022-11-06T04:04:40.166Z,9.661600
2022-11-06T04:05:40.126Z,9.661625
2022-11-06T04:06:40.121Z,9.661720
2022-11-06T04:07:40.121Z,9.661663
2022-11-06T04:08:40.118Z,9.661779
2022-11-06T04:09:40.115Z,9.661736
2022-11-06T04:10:40.116Z,9.661746
2022-11-06T04:11:40.105Z,9.661684
2022-11-06T04:12:40.088Z,9.661722
2022-11-06T04:13:40.113Z,9.661674
2022-11-06T04:14:40.081Z,9.661727
2022-11-06T04:15:40.090Z,9.661750
2022-11-06T04:16:40.058Z,9.661732
2022-11-06T04:17:40.057Z,9.661762
2022-11-06T04:18:40.060Z,9.661800
2022-11-06T04:19:40.045Z,9.661680
2022-11-06T04:20:40.090Z,9.661650
2022-11-06T04:21:40.088Z,9.661627
2022-11-06T04:22:40.058Z,9.661581
2022-11-06T04:23:40.021Z,9.661551
2022-11-06T04:24:40.010Z,9.661591
2022-11-06T04:25:39.992Z,9.661880
2022-11-06T04:26:40.025Z,9.662013
2022-11-06T04:27:39.990Z,9.662036
2022-11-06T04:28:39.985Z,9.661953
2022-11-06T04:29:39.978Z,9.661870
2022-11-06T04:30:39.957Z,9.661752
2022-11-06T04:31:39.975Z,9.661739
2022-11-06T04:32:40.068Z,9.661583
2022-11-06T04:33:39.934Z,9.661634
2022-11-06T04:34:39.950Z,9.661622
2022-11-06T04:35:39.952Z,9.661592
2022-11-06T04:36:39.929Z,9.661645
2022-11-06T04:37:39.943Z,9.661657
2022-11-06T04:38:39.921Z,9.661692
2022-11-06T04:39:39.901Z,9.661361
2022-11-06T04:40:39.889Z,9.661577
2022-11-06T04:41:39.887Z,9.661556
2022-11-06T04:42:39.898Z,9.661530
2022-11-06T04:43:39.989Z,9.661736
2022-11-06T04:44:39.852Z,9.661658
2022-11-06T04:45:39.877Z,9.661599
2022-11-06T04:46:39.857Z,9.661576
2022-11-06T04:47:39.850Z,9.661697
2022-11-06T04:48:39.941Z,9.661612
2022-11-06T04:49:39.863Z,9.661479
2022-11-06T04:50:39.863Z,9.661598
2022-11-06T04:51:39.841Z,9.661447
2022-11-06T04:52:39.811Z,9.661798
2022-11-06T04:53:39.801Z,9.661741
2022-11-06T04:54:39.848Z,9.661471
2022-11-06T04:55:39.805Z,9.661526
2022-11-06T04:56:44.702Z,9.661568
2022-11-06T04:57:39.797Z,9.661506
2022-11-06T04:58:39.786Z,9.661535
2022-11-06T04:59:39.797Z,9.661452
2022-11-06T05:00:39.776Z,9.661438
2022-11-06T05:01:39.962Z,9.661600
2022-11-06T05:02:39.761Z,9.661606
2022-11-06T05:03:39.743Z,9.661484
2022-11-06T05:04:39.756Z,9.661620
2022-11-06T05:05:39.769Z,9.661963
2022-11-06T05:06:39.747Z,9.661817
2022-11-06T05:07:39.729Z,9.661393
2022-11-06T05:08:39.711Z,9.661323
2022-11-06T05:09:39.706Z,9.661655
2022-11-06T05:10:39.713Z,9.661661
2022-11-06T05:11:39.699Z,9.661573
2022-11-06T05:12:39.694Z,9.661578
2022-11-06T05:13:39.690Z,9.661699
2022-11-06T05:14:39.682Z,9.661740
2022-11-06T05:15:39.671Z,9.661595
2022-11-06T05:16:39.785Z,9.661747
2022-11-06T05:17:39.668Z,9.661704
2022-11-06T05:18:39.648Z,9.661763
2022-11-06T05:19:39.665Z,9.661565
2022-11-06T05:20:39.629Z,9.661663
2022-11-06T05:21:39.637Z,9.661704
2022-11-06T05:22:39.617Z,9.661634
2022-11-06T05:23:39.616Z,9.661704
2022-11-06T05:24:39.607Z,9.661826
2022-11-06T05:25:39.609Z,9.661715
2022-11-06T05:26:39.589Z,9.661529
2022-11-06T05:27:39.675Z,9.661463
2022-11-06T05:28:39.577Z,9.661189
2022-11-06T05:29:39.591Z,9.661718
2022-11-06T05:30:39.589Z,9.661247
2022-11-06T05:31:39.644Z,9.661384
2022-11-06T05:32:40.591Z,9.661454
2022-11-06T05:33:39.537Z,9.661381
2022-11-06T05:34:39.536Z,9.661293
2022-11-06T05:35:39.542Z,9.661463
2022-11-06T05:36:39.532Z,9.661469
2022-11-06T05:37:39.555Z,9.661047
2022-11-06T05:38:39.580Z,9.661031
2022-11-06T05:39:41.999Z,9.661218
2022-11-06T05:40:40.499Z,9.661478
2022-11-06T05:41:39.504Z,9.661586
2022-11-06T05:42:39.494Z,9.661604
2022-11-06T05:43:39.589Z,9.661238
2022-11-06T05:44:39.479Z,9.661404
2022-11-06T05:45:39.463Z,9.661326
2022-11-06T05:46:54.850Z,9.661401
2022-11-06T05:47:41.469Z,9.661271
2022-11-06T05:48:39.464Z,9.661415
2022-11-06T05:49:39.483Z,9.661478
2022-11-06T05:50:39.433Z,9.661461
2022-11-06T05:51:39.445Z,9.661545
2022-11-06T05:52:39.430Z,9.661621
2022-11-06T05:53:39.412Z,9.661671
2022-11-06T05:54:39.529Z,9.661533
2022-11-06T05:55:39.413Z,9.661789
2022-11-06T05:56:39.391Z,9.661878
2022-11-06T05:57:39.651Z,9.661706
2022-11-06T05:58:40.160Z,9.661878
2022-11-06T05:59:39.379Z,9.661652
2022-11-06T06:00:39.478Z,9.661662
2022-11-06T06:01:39.536Z,9.661587
2022-11-06T06:02:39.544Z,9.661701
2022-11-06T06:03:40.171Z,9.661661
2022-11-06T06:04:39.351Z,9.661427
2022-11-06T06:05:39.373Z,9.661625
2022-11-06T06:06:39.362Z,9.661425
2022-11-06T06:07:39.317Z,9.661441
2022-11-06T06:08:39.327Z,9.661505
2022-11-06T06:09:39.328Z,9.661694
2022-11-06T06:10:39.313Z,9.661762
2022-11-06T06:11:39.342Z,9.661631
2022-11-06T06:12:39.314Z,9.661591
2022-11-06T06:13:39.280Z,9.661622
2022-11-06T06:14:39.295Z,9.661517
2022-11-06T06:15:39.293Z,9.661387
2022-11-06T06:16:39.398Z,9.661572
2022-11-06T06:17:39.258Z,9.661397
2022-11-06T06:18:39.252Z,9.661411
2022-11-06T06:19:39.251Z,9.661693
2022-11-06T06:20:39.240Z,9.661439
2022-11-06T06:21:39.241Z,9.661485
2022-11-06T06:22:39.364Z,9.661665
2022-11-06T06:23:39.225Z,9.661455
2022-11-06T06:24:39.265Z,9.661668
2022-11-06T06:25:39.204Z,9.661902
2022-11-06T06:26:39.215Z,9.661713
2022-11-06T06:27:39.223Z,9.661553
2022-11-06T06:28:39.202Z,9.661564
2022-11-06T06:29:39.193Z,9.661535
2022-11-06T06:30:39.276Z,9.661631
2022-11-06T06:31:39.168Z,9.661413
2022-11-06T06:32:39.182Z,9.661533
2022-11-06T06:33:39.237Z,9.661451
2022-11-06T06:34:39.159Z,9.661281
2022-11-06T06:35:39.138Z,9.661473
2022-11-06T06:36:39.125Z,9.661572
2022-11-06T06:37:39.133Z,9.661366
2022-11-06T06:38:39.167Z,9.661498
2022-11-06T06:39:39.132Z,9.661564
2022-11-06T06:40:39.113Z,9.661817
2022-11-06T06:41:39.099Z,9.661807
2022-11-06T06:42:39.095Z,9.661692
2022-11-06T06:43:39.105Z,9.661536
2022-11-06T06:44:39.078Z,9.661416
2022-11-06T06:45:39.075Z,9.661585
2022-11-06T06:46:39.086Z,9.661316
2022-11-06T06:47:39.085Z,9.661381
2022-11-06T06:48:39.061Z,9.662042
2022-11-06T06:49:39.092Z,9.661734
2022-11-06T06:50:39.057Z,9.661720
2022-11-06T06:51:39.078Z,9.661619
2022-11-06T06:52:39.039Z,9.661616
2022-11-06T06:53:39.039Z,9.661604
2022-11-06T06:54:39.103Z,9.661534
2022-11-06T06:55:39.025Z,9.661398
2022-11-06T06:56:39.013Z,9.661380
2022-11-06T06:57:39.001Z,9.661446
2022-11-06T06:58:38.995Z,9.661502
2022-11-06T06:59:39.006Z,9.661425
2022-11-06T07:00:39.131Z,9.661396
2022-11-06T07:01:39.094Z,9.661482
2022-11-06T07:02:38.979Z,9.661414
2022-11-06T07:03:38.965Z,9.661336
2022-11-06T07:04:38.957Z,9.661505
2022-11-06T07:05:39.004Z,9.661400
2022-11-06T07:06:38.952Z,9.661485
2022-11-06T07:07:38.945Z,9.661456
2022-11-06T07:08:38.965Z,9.661560
2022-11-06T07:09:39.096Z,9.661562
2022-11-06T07:10:38.935Z,9.661489
2022-11-06T07:11:39.045Z,9.661540
2022-11-06T07:12:38.921Z,9.661571
2022-11-06T07:13:38.926Z,9.661569
2022-11-06T07:14:38.916Z,9.661502
2022-11-06T07:15:38.914Z,9.661540
2022-11-06T07:16:38.927Z,9.661529
2022-11-06T07:17:38.882Z,9.661471
2022-11-06T07:18:38.891Z,9.661501
2022-11-06T07:20:11.620Z,9.661522
2022-11-06T07:20:38.858Z,9.661583
2022-11-06T07:21:38.860Z,9.661526
2022-11-06T07:22:38.892Z,9.661535
2022-11-06T07:23:38.871Z,9.661580
2022-11-06T07:24:38.848Z,9.661661
2022-11-06T07:25:38.847Z,9.661660
2022-11-06T07:26:38.836Z,9.661585
2022-11-06T07:27:38.851Z,9.661565
2022-11-06T07:28:38.808Z,9.661596
2022-11-06T07:29:38.801Z,9.661660
2022-11-06T07:30:38.807Z,9.661486
2022-11-06T07:31:38.816Z,9.661443
2022-11-06T07:32:38.779Z,9.661557
2022-11-06T07:33:38.808Z,9.661599
2022-11-06T07:34:38.782Z,9.661594
2022-11-06T07:35:38.784Z,9.661544
2022-11-06T07:36:38.773Z,9.661556
2022-11-06T07:37:38.769Z,9.661539
2022-11-06T07:38:38.855Z,9.661603
2022-11-06T07:39:38.743Z,9.661610
2022-11-06T07:40:38.756Z,9.661592
2022-11-06T07:41:38.738Z,9.661571
2022-11-06T07:42:43.265Z,9.661551
2022-11-06T07:43:41.166Z,9.661564
2022-11-06T07:44:38.734Z,9.661520
2022-11-06T07:45:38.708Z,9.661610
2022-11-06T07:46:38.706Z,9.661572
2022-11-06T07:47:38.715Z,9.661640
2022-11-06T07:48:38.685Z,9.661603
2022-11-06T07:49:39.121Z,9.661524
2022-11-06T07:50:38.682Z,9.661557
2022-11-06T07:51:38.668Z,9.661551
2022-11-06T07:52:38.650Z,9.661610
2022-11-06T07:53:38.658Z,9.661600
2022-11-06T07:54:38.773Z,9.661545
2022-11-06T07:55:42.228Z,9.661421
2022-11-06T07:56:39.633Z,9.661526
2022-11-06T07:57:38.624Z,9.661607
2022-11-06T07:58:38.633Z,9.661612
2022-11-06T07:59:38.655Z,9.661696
2022-11-06T08:00:39.148Z,9.661626
2022-11-06T08:01:38.733Z,9.661640
2022-11-06T08:02:38.648Z,9.661549
2022-11-06T08:03:38.604Z,9.661508
2022-11-06T08:04:38.584Z,9.661579
2022-11-06T08:05:38.594Z,9.661590
2022-11-06T08:06:38.592Z,9.661617
2022-11-06T08:07:38.587Z,9.661755
2022-11-06T08:08:38.578Z,9.661825
2022-11-06T08:09:38.557Z,9.661704
2022-11-06T08:10:38.564Z,9.661582
2022-11-06T08:11:38.682Z,9.661515
2022-11-06T08:12:38.538Z,9.661438
2022-11-06T08:13:38.548Z,9.661476
2022-11-06T08:14:41.405Z,9.661530
2022-11-06T08:15:40.066Z,9.661662
2022-11-06T08:16:38.540Z,9.661622
2022-11-06T08:17:38.510Z,9.661735
2022-11-06T08:18:38.497Z,9.661617
2022-11-06T08:19:38.511Z,9.661712
2022-11-06T08:20:38.494Z,9.661874
2022-11-06T08:21:38.495Z,9.661777
2022-11-06T08:22:38.598Z,9.661933
2022-11-06T08:23:38.478Z,9.661919
2022-11-06T08:24:38.486Z,9.661839
2022-11-06T08:25:38.478Z,9.661848
2022-11-06T08:26:38.449Z,9.661766
2022-11-06T08:27:38.578Z,9.661766
2022-11-06T08:28:38.446Z,9.661724
2022-11-06T08:29:41.560Z,9.661722
2022-11-06T08:30:40.147Z,9.661799
2022-11-06T08:31:38.427Z,9.661560
2022-11-06T08:32:38.438Z,9.661485
2022-11-06T08:33:38.504Z,9.661553
2022-11-06T08:34:39.427Z,9.661574
2022-11-06T08:35:38.417Z,9.661655
2022-11-06T08:36:38.409Z,9.661677
2022-11-06T08:37:38.398Z,9.661879
2022-11-06T08:38:38.526Z,9.661855
2022-11-06T08:39:38.476Z,9.661712
2022-11-06T08:40:38.382Z,9.661797
2022-11-06T08:41:38.383Z,9.661704
2022-11-06T08:42:38.372Z,9.661623
2022-11-06T08:43:38.370Z,9.661632
2022-11-06T08:44:38.473Z,9.661536
2022-11-06T08:45:38.357Z,9.661426
2022-11-06T08:46:38.371Z,9.661611
2022-11-06T08:47:38.359Z,9.661669
2022-11-06T08:48:38.361Z,9.661531
2022-11-06T08:49:38.387Z,9.661455
2022-11-06T08:50:38.346Z,9.661537
2022-11-06T08:51:38.335Z,9.661651
2022-11-06T08:52:38.356Z,9.661678
2022-11-06T08:53:38.412Z,9.661487
2022-11-06T08:54:38.335Z,9.661531
2022-11-06T08:55:38.430Z,9.661560
2022-11-06T08:56:38.309Z,9.661565
2022-11-06T08:57:38.319Z,9.661742
2022-11-06T08:58:38.294Z,9.661779
2022-11-06T08:59:38.301Z,9.661829
2022-11-06T09:00:38.502Z,9.661676
2022-11-06T09:01:38.463Z,9.661574
2022-11-06T09:02:38.305Z,9.661515
2022-11-06T09:03:38.259Z,9.661441
2022-11-06T09:04:41.306Z,9.661219
2022-11-06T09:05:39.276Z,9.661005
2022-11-06T09:06:38.259Z,9.660996
2022-11-06T09:07:38.258Z,9.661264
2022-11-06T09:08:38.251Z,9.661465
2022-11-06T09:09:38.241Z,9.661637
2022-11-06T09:10:38.252Z,9.661608
2022-11-06T09:11:38.252Z,9.661545
2022-11-06T09:12:38.238Z,9.661488
2022-11-06T09:13:38.233Z,9.661410
2022-11-06T09:14:38.219Z,9.661507
2022-11-06T09:15:38.211Z,9.661549
2022-11-06T09:16:38.225Z,9.661552
2022-11-06T09:17:38.252Z,9.661503
2022-11-06T09:18:38.218Z,9.661504
2022-11-06T09:19:38.177Z,9.661598
2022-11-06T09:20:38.587Z,9.661554
2022-11-06T09:21:38.174Z,9.661643
2022-11-06T09:22:38.289Z,9.661873
2022-11-06T09:23:38.200Z,9.661747
2022-11-06T09:25:02.108Z,9.661613
2022-11-06T09:25:40.166Z,9.661744
2022-11-06T09:26:38.159Z,9.661605
2022-11-06T09:27:38.238Z,9.661410
2022-11-06T09:28:38.146Z,9.661398
2022-11-06T09:29:38.143Z,9.661479
2022-11-06T09:30:38.140Z,9.661645
2022-11-06T09:31:38.113Z,9.661700
2022-11-06T09:32:38.107Z,9.661703
2022-11-06T09:33:38.131Z,9.661674
2022-11-06T09:34:38.106Z,9.661675
2022-11-06T09:35:38.104Z,9.661619
2022-11-06T09:36:38.097Z,9.661635
2022-11-06T09:37:38.097Z,9.661694
2022-11-06T09:38:38.213Z,9.661798
2022-11-06T09:39:38.089Z,9.661724
2022-11-06T09:40:38.068Z,9.661677
2022-11-06T09:41:38.066Z,9.661618
2022-11-06T09:42:38.061Z,9.661694
2022-11-06T09:44:03.676Z,9.661699
2022-11-06T09:44:39.158Z,9.661655
2022-11-06T09:45:38.053Z,9.661663
2022-11-06T09:46:38.047Z,9.661636
2022-11-06T09:47:38.036Z,9.661580
2022-11-06T09:48:38.035Z,9.661595
2022-11-06T09:49:38.045Z,9.661594
2022-11-06T09:50:38.123Z,9.661620
2022-11-06T09:51:38.001Z,9.661660
2022-11-06T09:52:38.009Z,9.661647
2022-11-06T09:53:37.994Z,9.661551
2022-11-06T09:54:37.990Z,9.661619
2022-11-06T09:55:38.016Z,9.661543
2022-11-06T09:56:37.984Z,9.661534
2022-11-06T09:57:37.990Z,9.661583
2022-11-06T09:58:37.972Z,9.661566
2022-11-06T09:59:37.966Z,9.661586
2022-11-06T10:00:37.969Z,9.661599
2022-11-06T10:01:38.109Z,9.661610
2022-11-06T10:02:38.031Z,9.661624
2022-11-06T10:03:37.956Z,9.661680
2022-11-06T10:04:37.945Z,9.661644
2022-11-06T10:05:37.941Z,9.661583
2022-11-06T10:06:37.984Z,9.661500
2022-11-06T10:07:37.908Z,9.661520
2022-11-06T10:08:37.965Z,9.661572
2022-11-06T10:09:38.175Z,9.661574
2022-11-06T10:10:37.913Z,9.661567
2022-11-06T10:11:37.904Z,9.661552
2022-11-06T10:12:38.031Z,9.661546
2022-11-06T10:13:37.922Z,9.661549
2022-11-06T10:14:37.878Z,9.661510
2022-11-06T10:15:37.893Z,9.661489
2022-11-06T10:16:37.869Z,9.661571
2022-11-06T10:17:37.920Z,9.661534
2022-11-06T10:18:37.859Z,9.661440
2022-11-06T10:19:37.849Z,9.661469
2022-11-06T10:20:37.850Z,9.661534
2022-11-06T10:21:37.844Z,9.661585
2022-11-06T10:22:37.852Z,9.661675
2022-11-06T10:23:37.943Z,9.661795
2022-11-06T10:24:37.847Z,9.661810
2022-11-06T10:25:37.823Z,9.661854
2022-11-06T10:26:37.830Z,9.661767
2022-11-06T10:27:37.807Z,9.661697
2022-11-06T10:28:37.947Z,9.661637
2022-11-06T10:29:37.805Z,9.661573
2022-11-06T10:30:37.798Z,9.661633
2022-11-06T10:31:37.853Z,9.661686
2022-11-06T10:32:37.786Z,9.661674
2022-11-06T10:33:37.800Z,9.661657
2022-11-06T10:34:37.789Z,9.661624
2022-11-06T10:35:37.788Z,9.661584
2022-11-06T10:36:37.762Z,9.661775
2022-11-06T10:37:37.749Z,9.661599
2022-11-06T10:38:37.758Z,9.661679
2022-11-06T10:39:37.852Z,9.661561
2022-11-06T10:40:37.737Z,9.661558
2022-11-06T10:41:37.809Z,9.661750
2022-11-06T10:42:38.547Z,9.661668
2022-11-06T10:43:38.716Z,9.661708
2022-11-06T10:44:37.768Z,9.661690
2022-11-06T10:45:37.775Z,9.662101
2022-11-06T10:46:37.728Z,9.661573
2022-11-06T10:47:37.683Z,9.661677
2022-11-06T10:48:41.365Z,9.661681
2022-11-06T10:49:37.705Z,9.661877
2022-11-06T10:50:38.674Z,9.661881
2022-11-06T10:51:37.660Z,9.661848
2022-11-06T10:52:37.683Z,9.661646
2022-11-06T10:53:37.678Z,9.661473
2022-11-06T10:54:37.671Z,9.661653
2022-11-06T10:55:37.678Z,9.661600
2022-11-06T10:56:37.812Z,9.661645
2022-11-06T10:57:37.658Z,9.661577
2022-11-06T10:58:37.636Z,9.661769
2022-11-06T10:59:37.663Z,9.661489
2022-11-06T11:00:37.722Z,9.661530
2022-11-06T11:01:37.936Z,9.661579
2022-11-06T11:02:37.713Z,9.661678
2022-11-06T11:03:37.601Z,9.661611
2022-11-06T11:04:37.625Z,9.661534
2022-11-06T11:05:37.598Z,9.661710
2022-11-06T11:06:37.610Z,9.661766
2022-11-06T11:07:37.605Z,9.661975
2022-11-06T11:08:37.570Z,9.662199
2022-11-06T11:09:37.592Z,9.661468
2022-11-06T11:10:37.561Z,9.661530
2022-11-06T11:11:37.554Z,9.661301
2022-11-06T11:12:37.685Z,9.661546
2022-11-06T11:13:37.581Z,9.661469
2022-11-06T11:14:37.546Z,9.661131
2022-11-06T11:15:37.531Z,9.661272
2022-11-06T11:16:37.558Z,9.661533
2022-11-06T11:17:37.526Z,9.661864
2022-11-06T11:18:37.561Z,9.662051
2022-11-06T11:19:37.526Z,9.661689
2022-11-06T11:20:37.521Z,9.661707
2022-11-06T11:21:37.537Z,9.661711
2022-11-06T11:22:37.544Z,9.661740
2022-11-06T11:23:37.613Z,9.661623
2022-11-06T11:24:37.509Z,9.661784
2022-11-06T11:25:37.482Z,9.661720
2022-11-06T11:26:37.477Z,9.661675
2022-11-06T11:27:37.485Z,9.661858
2022-11-06T11:28:37.519Z,9.661674
2022-11-06T11:29:37.495Z,9.661715
2022-11-06T11:30:37.457Z,9.661756
2022-11-06T11:31:37.479Z,9.661487
2022-11-06T11:32:37.563Z,9.661326
2022-11-06T11:33:37.476Z,9.661357
2022-11-06T11:34:37.555Z,9.661802
2022-11-06T11:35:37.429Z,9.661698
2022-11-06T11:36:37.427Z,9.661757
2022-11-06T11:37:37.419Z,9.661980
2022-11-06T11:38:38.204Z,9.661802
2022-11-06T11:39:37.387Z,9.661804
2022-11-06T11:40:37.543Z,9.661695
2022-11-06T11:41:37.430Z,9.661629
2022-11-06T11:42:37.398Z,9.661667
2022-11-06T11:43:37.368Z,9.661630
2022-11-06T11:44:37.377Z,9.661613